createdAt,value
2022-08-01T00:00:13.751Z,98123.30
2022-08-01T00:03:02.964Z,98122.36
2022-08-01T00:05:32.637Z,98118.26
2022-08-01T00:08:01.529Z,98122.36
2022-08-01T00:10:30.520Z,98121.09
2022-08-01T00:12:59.345Z,98120.64
2022-08-01T00:15:28.374Z,98119.08
2022-08-01T00:17:57.193Z,98118.69
2022-08-01T00:20:26.399Z,98116.52
2022-08-01T00:22:55.181Z,98119.08
2022-08-01T00:25:34.173Z,98119.20
2022-08-01T00:28:04.267Z,98114.63
2022-08-01T00:37:38.429Z,98116.73
2022-08-01T00:40:12.354Z,98123.66
2022-08-01T00:42:44.592Z,98126.94
2022-08-01T00:45:16.941Z,98125.58
2022-08-01T00:47:49.391Z,98122.41
2022-08-01T00:50:29.139Z,98122.88
2022-08-01T00:53:02.144Z,98124.08
2022-08-01T00:55:35.293Z,98122.64
2022-08-01T00:58:08.512Z,98118.54
2022-08-01T01:00:52.962Z,98118.85
2022-08-01T01:03:56.301Z,98119.45
2022-08-01T01:06:29.330Z,98119.36
2022-08-01T01:09:18.585Z,98126.33
2022-08-01T01:12:04.173Z,98126.61
2022-08-01T01:14:47.443Z,98126.40
2022-08-01T01:17:49.748Z,98123.54
2022-08-01T01:20:18.523Z,98126.02
2022-08-01T01:23:11.555Z,98128.77
2022-08-01T01:26:07.340Z,98126.27
2022-08-01T01:28:52.007Z,98128.16
2022-08-01T01:31:26.719Z,98124.95
2022-08-01T01:34:01.214Z,98129.21
2022-08-01T01:36:35.999Z,98128.33
2022-08-01T01:39:09.129Z,98126.86
2022-08-01T01:41:43.540Z,98120.27
2022-08-01T01:44:17.550Z,98118.05
2022-08-01T01:46:51.118Z,98117.24
2022-08-01T01:49:27.940Z,98114.86
2022-08-01T01:52:03.980Z,98114.91
2022-08-01T01:54:43.035Z,98115.44
2022-08-01T01:57:19.237Z,98117.08
2022-08-01T01:59:55.543Z,98113.15
2022-08-01T02:02:29.350Z,98110.05
2022-08-01T02:05:03.095Z,98108.98
2022-08-01T02:07:37.027Z,98107.98
2022-08-01T02:10:12.479Z,98107.55
2022-08-01T02:12:46.661Z,98106.55
2022-08-01T02:15:20.494Z,98102.53
2022-08-01T02:17:55.054Z,98099.86
2022-08-01T02:20:55.148Z,98098.36
2022-08-01T02:23:30.836Z,98099.03
2022-08-01T02:26:10.993Z,98095.40
2022-08-01T02:28:49.942Z,98095.86
2022-08-01T02:31:24.927Z,98096.20
2022-08-01T02:34:04.422Z,98097.57
2022-08-01T02:36:38.676Z,98099.44
2022-08-01T02:39:15.208Z,98100.98
2022-08-01T02:41:51.438Z,98101.20
2022-08-01T02:44:31.089Z,98100.33
2022-08-01T02:47:05.752Z,98101.93
2022-08-01T02:49:41.453Z,98102.08
2022-08-01T02:52:21.119Z,98099.05
2022-08-01T02:54:57.276Z,98103.20
2022-08-01T02:57:51.893Z,98107.39
2022-08-01T03:00:27.204Z,98111.03
2022-08-01T03:03:01.693Z,98105.70
2022-08-01T03:05:35.167Z,98102.16
2022-08-01T03:08:14.563Z,98101.77
2022-08-01T03:10:49.193Z,98097.42
2022-08-01T03:13:22.645Z,98099.83
2022-08-01T03:15:56.741Z,98101.73
2022-08-01T03:18:33.153Z,98103.30
2022-08-01T03:21:06.466Z,98101.30
2022-08-01T03:23:40.621Z,98101.59
2022-08-01T03:26:13.575Z,98099.81
2022-08-01T03:28:49.398Z,98101.50
2022-08-01T03:31:22.499Z,98105.20
2022-08-01T03:33:54.868Z,98103.14
2022-08-01T03:36:30.894Z,98104.87
2022-08-01T03:39:06.789Z,98105.02
2022-08-01T03:41:43.750Z,98103.27
2022-08-01T03:44:19.987Z,98102.80
2022-08-01T03:46:56.242Z,98102.55
2022-08-01T03:49:32.490Z,98108.23
2022-08-01T03:52:08.851Z,98114.95
2022-08-01T03:54:43.168Z,98122.02
2022-08-01T03:57:36.142Z,98126.98
2022-08-01T04:00:11.904Z,98135.11
2022-08-01T04:02:47.592Z,98131.34
2022-08-01T04:05:20.205Z,98133.02
2022-08-01T04:07:59.631Z,98132.61
2022-08-01T04:10:35.249Z,98139.77
2022-08-01T04:13:07.551Z,98135.40
2022-08-01T04:15:40.879Z,98138.52
2022-08-01T04:18:13.341Z,98138.03
2022-08-01T04:20:48.794Z,98131.45
2022-08-01T04:23:23.174Z,98127.71
2022-08-01T04:25:57.666Z,98126.88
2022-08-01T04:28:30.770Z,98129.75
2022-08-01T04:31:05.795Z,98130.69
2022-08-01T04:33:42.958Z,98130.08
2022-08-01T04:36:17.703Z,98130.95
2022-08-01T04:38:53.396Z,98126.25
2022-08-01T04:41:28.469Z,98124.29
2022-08-01T04:44:01.757Z,98120.14
2022-08-01T04:46:35.856Z,98123.27
2022-08-01T04:49:13.321Z,98128.04
2022-08-01T04:51:58.731Z,98124.44
2022-08-01T04:54:34.305Z,98121.23
2022-08-01T04:57:08.283Z,98128.09
2022-08-01T04:59:44.914Z,98134.71
2022-08-01T05:02:19.181Z,98136.95
2022-08-01T05:04:51.556Z,98132.00
2022-08-01T05:07:23.732Z,98136.16
2022-08-01T05:09:56.121Z,98136.34
2022-08-01T05:12:28.221Z,98139.49
2022-08-01T05:15:00.643Z,98139.80
2022-08-01T05:17:33.282Z,98139.86
2022-08-01T05:20:07.356Z,98142.05
2022-08-01T05:22:42.192Z,98140.26
2022-08-01T05:25:20.331Z,98139.42
2022-08-01T05:27:55.473Z,98134.13
2022-08-01T05:30:30.471Z,98134.83
2022-08-01T05:33:03.243Z,98133.78
2022-08-01T05:35:48.525Z,98131.13
2022-08-01T05:38:21.434Z,98125.16
2022-08-01T05:40:53.816Z,98119.93
2022-08-01T05:43:29.255Z,98120.85
2022-08-01T05:46:03.200Z,98122.23
2022-08-01T05:48:35.443Z,98127.00
2022-08-01T05:51:08.267Z,98123.17
2022-08-01T05:53:40.595Z,98128.08
2022-08-01T05:56:13.416Z,98128.48
2022-08-01T05:58:45.991Z,98127.18
2022-08-01T06:01:18.268Z,98130.10
2022-08-01T06:03:50.508Z,98134.80
2022-08-01T06:06:25.342Z,98136.92
2022-08-01T06:08:58.106Z,98139.90
2022-08-01T06:11:33.837Z,98138.83
2022-08-01T06:14:06.403Z,98134.90
2022-08-01T06:16:38.727Z,98134.56
2022-08-01T06:19:14.120Z,98137.19
2022-08-01T06:21:46.529Z,98137.24
2022-08-01T06:24:27.840Z,98140.01
2022-08-01T06:27:22.038Z,98136.95
2022-08-01T06:29:56.123Z,98142.23
2022-08-01T06:32:33.396Z,98137.26
2022-08-01T06:35:10.180Z,98132.39
2022-08-01T06:37:43.363Z,98136.35
2022-08-01T06:40:17.415Z,98132.80
2022-08-01T06:42:50.389Z,98131.03
2022-08-01T06:45:23.839Z,98137.34
2022-08-01T06:47:56.382Z,98134.02
2022-08-01T06:50:28.596Z,98135.14
2022-08-01T06:53:00.880Z,98135.44
2022-08-01T06:55:37.496Z,98132.91
2022-08-01T06:58:09.679Z,98130.46
2022-08-01T07:00:43.449Z,98136.55
2022-08-01T07:03:15.994Z,98134.96
2022-08-01T07:05:50.948Z,98134.16
2022-08-01T07:08:23.224Z,98136.16
2022-08-01T07:10:56.729Z,98134.17
2022-08-01T07:13:36.691Z,98131.73
2022-08-01T07:16:17.654Z,98127.95
2022-08-01T07:18:49.894Z,98127.93
2022-08-01T07:21:40.463Z,98125.91
2022-08-01T07:24:15.686Z,98130.16
2022-08-01T07:26:53.452Z,98132.89
2022-08-01T07:29:29.013Z,98131.48
2022-08-01T07:32:01.893Z,98129.48
2022-08-01T07:34:34.211Z,98128.29
2022-08-01T07:37:06.379Z,98121.16
2022-08-01T07:39:38.681Z,98117.77
2022-08-01T07:42:11.311Z,98120.65
2022-08-01T07:44:44.393Z,98117.08
2022-08-01T07:47:16.894Z,98121.82
2022-08-01T07:49:49.912Z,98119.11
2022-08-01T07:52:24.742Z,98115.73
2022-08-01T07:54:57.401Z,98114.06
2022-08-01T07:57:32.337Z,98114.60
2022-08-01T08:00:05.761Z,98114.77
2022-08-01T08:02:37.991Z,98114.48
2022-08-01T08:05:11.797Z,98118.24
2022-08-01T08:07:44.244Z,98118.73
2022-08-01T08:10:16.533Z,98118.35
2022-08-01T08:12:49.535Z,98122.53
2022-08-01T08:15:25.127Z,98119.52
2022-08-01T08:17:58.474Z,98119.35
2022-08-01T08:20:30.892Z,98123.45
2022-08-01T08:23:41.435Z,98126.56
2022-08-01T08:26:16.052Z,98123.88
2022-08-01T08:28:48.604Z,98125.02
2022-08-01T08:31:50.970Z,98126.85
2022-08-01T08:34:17.145Z,98124.25
2022-08-01T08:36:49.930Z,98130.23
2022-08-01T08:39:24.913Z,98129.63
2022-08-01T08:41:58.821Z,98132.40
2022-08-01T08:44:31.035Z,98135.92
2022-08-01T08:47:06.515Z,98136.50
2022-08-01T08:49:44.355Z,98136.95
2022-08-01T08:52:23.737Z,98135.23
2022-08-01T08:54:57.840Z,98134.34
2022-08-01T08:57:32.372Z,98136.77
2022-08-01T09:00:05.939Z,98140.70
2022-08-01T09:02:38.312Z,98141.69
2022-08-01T09:05:15.047Z,98142.13
2022-08-01T09:07:51.303Z,98141.81
2022-08-01T09:10:23.766Z,98144.13
2022-08-01T09:13:12.857Z,98149.54
2022-08-01T09:15:47.348Z,98149.77
2022-08-01T09:18:35.020Z,98146.34
2022-08-01T09:21:17.382Z,98148.91
2022-08-01T09:23:53.479Z,98149.17
2022-08-01T09:26:34.409Z,98152.94
2022-08-01T09:29:10.427Z,98149.95
2022-08-01T09:31:48.082Z,98150.11
2022-08-01T09:34:28.361Z,98150.29
2022-08-01T09:37:03.422Z,98148.06
2022-08-01T09:39:38.787Z,98143.02
2022-08-01T09:42:28.734Z,98148.69
2022-08-01T09:45:02.737Z,98148.74
2022-08-01T09:47:42.010Z,98151.16
2022-08-01T09:50:18.874Z,98151.58
2022-08-01T09:52:58.186Z,98151.46
2022-08-01T09:55:30.659Z,98149.59
2022-08-01T09:58:02.889Z,98150.79
2022-08-01T10:00:45.554Z,98153.02
2022-08-01T10:03:25.964Z,98152.30
2022-08-01T10:06:01.838Z,98154.29
2022-08-01T10:08:49.778Z,98159.81
2022-08-01T10:11:35.801Z,98160.25
2022-08-01T10:14:09.252Z,98159.05
2022-08-01T10:16:42.169Z,98153.70
2022-08-01T10:19:15.530Z,98157.84
2022-08-01T10:21:57.676Z,98154.56
2022-08-01T10:24:33.626Z,98155.27
2022-08-01T10:27:09.199Z,98149.27
2022-08-01T10:30:06.079Z,98147.17
2022-08-01T10:32:40.903Z,98148.64
2022-08-01T10:35:18.249Z,98147.33
2022-08-01T10:38:13.710Z,98152.17
2022-08-01T10:40:46.790Z,98148.80
2022-08-01T10:43:21.966Z,98146.17
2022-08-01T10:45:55.236Z,98143.67
2022-08-01T10:48:35.882Z,98150.16
2022-08-01T10:51:17.886Z,98142.36
2022-08-01T10:53:56.172Z,98137.25
2022-08-01T10:56:44.935Z,98139.13
2022-08-01T10:59:29.066Z,98140.07
2022-08-01T11:02:31.703Z,98134.86
2022-08-01T11:05:14.456Z,98133.58
2022-08-01T11:07:55.013Z,98132.48
2022-08-01T11:10:28.247Z,98126.45
2022-08-01T11:13:02.155Z,98128.46
2022-08-01T11:15:37.447Z,98126.65
2022-08-01T11:18:37.668Z,98128.52
2022-08-01T11:21:58.666Z,98126.85
2022-08-01T11:24:03.999Z,98124.94
2022-08-01T11:26:36.253Z,98128.17
2022-08-01T11:29:22.758Z,98125.58
2022-08-01T11:32:15.929Z,98129.36
2022-08-01T11:34:58.490Z,98122.36
2022-08-01T11:37:33.064Z,98124.42
2022-08-01T11:40:24.985Z,98119.33
2022-08-01T11:43:20.531Z,98119.27
2022-08-01T11:45:56.232Z,98121.48
2022-08-01T11:48:30.562Z,98119.20
2022-08-01T11:51:03.133Z,98120.44
2022-08-01T11:53:36.756Z,98117.91
2022-08-01T11:56:09.900Z,98123.30
2022-08-01T11:58:42.373Z,98123.02
2022-08-01T12:01:16.653Z,98121.37
2022-08-01T12:03:57.731Z,98121.06
2022-08-01T12:06:32.611Z,98117.61
2022-08-01T12:12:06.784Z,98116.95
2022-08-01T12:14:39.215Z,98111.02
2022-08-01T12:17:11.440Z,98117.31
2022-08-01T12:19:44.835Z,98115.64
2022-08-01T12:22:18.333Z,98111.23
2022-08-01T12:24:50.622Z,98105.85
2022-08-01T12:27:30.342Z,98106.73
2022-08-01T12:30:03.376Z,98100.89
2022-08-01T12:32:37.782Z,98099.29
2022-08-01T12:35:16.483Z,98100.79
2022-08-01T12:37:52.951Z,98100.45
2022-08-01T12:40:27.099Z,98097.52
2022-08-01T12:43:03.277Z,98089.91
2022-08-01T12:45:40.594Z,98090.50
2022-08-01T12:48:27.439Z,98088.70
2022-08-01T12:51:03.676Z,98091.36
2022-08-01T12:53:41.067Z,98091.45
2022-08-01T12:56:15.831Z,98092.09
2022-08-01T12:58:48.189Z,98093.38
2022-08-01T13:01:29.474Z,98093.77
2022-08-01T13:04:06.163Z,98090.34
2022-08-01T13:06:38.986Z,98090.52
2022-08-01T13:09:12.880Z,98089.46
2022-08-01T13:12:03.809Z,98091.02
2022-08-01T13:14:37.256Z,98088.34
2022-08-01T13:17:31.612Z,98092.65
2022-08-01T13:20:03.861Z,98088.63
2022-08-01T13:22:41.316Z,98087.05
2022-08-01T13:25:22.284Z,98092.16
2022-08-01T13:28:18.548Z,98084.96
2022-08-01T13:30:59.015Z,98090.67
2022-08-01T13:33:43.806Z,98088.60
2022-08-01T13:36:16.712Z,98085.52
2022-08-01T13:39:07.109Z,98087.66
2022-08-01T13:41:41.609Z,98091.70
2022-08-01T13:44:14.444Z,98089.16
2022-08-01T13:46:49.821Z,98088.11
2022-08-01T13:49:23.783Z,98085.89
2022-08-01T13:51:56.057Z,98096.88
2022-08-01T13:54:28.661Z,98094.63
2022-08-01T13:57:01.297Z,98094.81
2022-08-01T13:59:33.736Z,98088.26
2022-08-01T14:02:06.284Z,98090.15
2022-08-01T14:04:38.678Z,98097.38
2022-08-01T14:07:14.535Z,98098.48
2022-08-01T14:10:04.324Z,98089.60
2022-08-01T14:12:40.053Z,98096.07
2022-08-01T14:15:13.495Z,98098.36
2022-08-01T14:17:47.907Z,98101.52
2022-08-01T14:20:20.956Z,98094.02
2022-08-01T14:22:53.192Z,98095.85
2022-08-01T14:26:03.789Z,98095.83
2022-08-01T14:28:17.943Z,98094.31
2022-08-01T14:30:50.011Z,98099.52
2022-08-01T14:33:22.249Z,98098.19
2022-08-01T14:36:05.266Z,98101.20
2022-08-01T14:38:49.551Z,98107.78
2022-08-01T14:41:22.597Z,98107.13
2022-08-01T14:43:54.839Z,98107.23
2022-08-01T14:46:27.134Z,98109.04
2022-08-01T14:48:59.325Z,98107.02
2022-08-01T14:51:34.151Z,98109.34
2022-08-01T14:54:06.866Z,98111.90
2022-08-01T14:56:41.054Z,98111.61
2022-08-01T14:59:21.740Z,98111.52
2022-08-01T15:01:54.628Z,98101.70
2022-08-01T15:04:27.014Z,98104.70
2022-08-01T15:06:59.191Z,98107.67
2022-08-01T15:09:31.737Z,98107.60
2022-08-01T15:12:04.251Z,98102.84
2022-08-01T15:14:52.144Z,98111.01
2022-08-01T15:17:26.278Z,98111.40
2022-08-01T15:20:00.059Z,98109.06
2022-08-01T15:22:33.076Z,98104.77
2022-08-01T15:25:06.398Z,98107.02
2022-08-01T15:27:38.760Z,98108.48
2022-08-01T15:30:12.245Z,98107.70
2022-08-01T15:32:44.605Z,98110.31
2022-08-01T15:35:16.908Z,98118.08
2022-08-01T15:37:49.123Z,98118.97
2022-08-01T15:40:21.499Z,98117.42
2022-08-01T15:42:54.345Z,98112.43
2022-08-01T15:48:20.516Z,98116.55
2022-08-01T15:50:52.837Z,98126.73
2022-08-01T15:53:25.086Z,98131.05
2022-08-01T15:55:57.801Z,98130.11
2022-08-01T15:58:30.108Z,98127.90
2022-08-01T16:01:02.439Z,98125.10
2022-08-01T16:03:34.717Z,98126.48
2022-08-01T16:06:08.103Z,98123.67
2022-08-01T16:08:40.361Z,98129.27
2022-08-01T16:11:12.654Z,98129.67
2022-08-01T16:13:46.462Z,98127.17
2022-08-01T16:16:18.981Z,98134.06
2022-08-01T16:18:53.926Z,98131.13
2022-08-01T16:21:26.306Z,98135.27
2022-08-01T16:23:58.657Z,98140.15
2022-08-01T16:26:30.895Z,98140.64
2022-08-01T16:29:03.045Z,98140.56
2022-08-01T16:32:02.579Z,98137.05
2022-08-01T16:34:28.051Z,98145.30
2022-08-01T16:37:02.701Z,98144.69
2022-08-01T16:39:35.128Z,98142.91
2022-08-01T16:42:08.121Z,98146.69
2022-08-01T16:44:41.517Z,98141.63
2022-08-01T16:47:14.077Z,98135.20
2022-08-01T16:49:46.304Z,98137.96
2022-08-01T16:52:18.907Z,98137.99
2022-08-01T16:54:51.143Z,98138.12
2022-08-01T16:57:23.402Z,98142.44
2022-08-01T16:59:55.513Z,98142.53
2022-08-01T17:02:28.728Z,98146.77
2022-08-01T17:05:01.027Z,98146.04
2022-08-01T17:07:39.606Z,98142.13
2022-08-01T17:10:14.208Z,98140.48
2022-08-01T17:12:46.698Z,98135.90
2022-08-01T17:15:18.932Z,98150.75
2022-08-01T17:17:53.362Z,98146.60
2022-08-01T17:20:29.938Z,98147.56
2022-08-01T17:23:02.422Z,98155.07
2022-08-01T17:25:34.649Z,98154.27
2022-08-01T17:28:07.269Z,98162.92
2022-08-01T17:30:40.556Z,98167.79
2022-08-01T17:33:12.674Z,98174.23
2022-08-01T17:35:47.131Z,98170.41
2022-08-01T17:38:19.643Z,98168.73
2022-08-01T17:40:51.849Z,98170.89
2022-08-01T17:43:24.210Z,98168.60
2022-08-01T17:45:57.662Z,98178.70
2022-08-01T17:48:30.127Z,98174.40
2022-08-01T17:51:02.359Z,98175.63
2022-08-01T17:53:35.116Z,98179.96
2022-08-01T17:56:10.152Z,98182.99
2022-08-01T17:58:51.796Z,98185.38
2022-08-01T18:01:27.621Z,98191.12
2022-08-01T18:04:01.485Z,98194.63
2022-08-01T18:06:35.910Z,98196.33
2022-08-01T18:09:11.230Z,98201.42
2022-08-01T18:11:43.708Z,98199.10
2022-08-01T18:14:16.770Z,98204.60
2022-08-01T18:16:49.044Z,98204.23
2022-08-01T18:19:21.759Z,98206.48
2022-08-01T18:21:54.503Z,98207.88
2022-08-01T18:24:26.859Z,98208.19
2022-08-01T18:26:59.760Z,98207.23
2022-08-01T18:29:48.173Z,98208.72
2022-08-01T18:32:21.746Z,98212.00
2022-08-01T18:34:54.151Z,98209.20
2022-08-01T18:37:26.796Z,98209.70
2022-08-01T18:40:02.743Z,98213.27
2022-08-01T18:42:37.202Z,98221.73
2022-08-01T18:45:11.388Z,98222.15
2022-08-01T18:47:45.099Z,98224.11
2022-08-01T18:50:17.593Z,98218.92
2022-08-01T18:52:50.002Z,98221.05
2022-08-01T18:55:22.709Z,98222.45
2022-08-01T18:57:55.704Z,98223.45
2022-08-01T19:00:27.986Z,98231.33
2022-08-01T19:03:00.677Z,98240.24
2022-08-01T19:05:35.065Z,98246.21
2022-08-01T19:08:13.942Z,98245.57
2022-08-01T19:10:47.552Z,98245.08
2022-08-01T19:13:20.783Z,98247.85
2022-08-01T19:15:53.282Z,98254.08
2022-08-01T19:18:36.871Z,98252.60
2022-08-01T19:21:09.750Z,98243.06
2022-08-01T19:23:59.551Z,98248.40
2022-08-01T19:26:35.875Z,98254.63
2022-08-01T19:29:20.098Z,98253.02
2022-08-01T19:31:55.175Z,98258.31
2022-08-01T19:34:29.650Z,98264.71
2022-08-01T19:37:02.456Z,98265.52
2022-08-01T19:39:36.764Z,98277.14
2022-08-01T19:42:10.113Z,98283.84
2022-08-01T19:44:46.980Z,98288.10
2022-08-01T19:47:24.025Z,98290.36
2022-08-01T19:49:57.080Z,98292.41
2022-08-01T19:52:31.873Z,98296.39
2022-08-01T19:55:07.536Z,98289.83
2022-08-01T19:57:45.614Z,98295.45
2022-08-01T20:00:27.691Z,98290.35
2022-08-01T20:03:02.911Z,98285.12
2022-08-01T20:05:36.519Z,98289.12
2022-08-01T20:08:11.597Z,98290.68
2022-08-01T20:10:44.414Z,98294.33
2022-08-01T20:13:20.335Z,98298.20
2022-08-01T20:15:54.236Z,98295.66
2022-08-01T20:18:26.736Z,98297.30
2022-08-01T20:21:00.072Z,98296.88
2022-08-01T20:23:33.105Z,98298.29
2022-08-01T20:26:06.766Z,98296.87
2022-08-01T20:28:42.029Z,98299.43
2022-08-01T20:31:14.550Z,98300.51
2022-08-01T20:33:49.823Z,98297.73
2022-08-01T20:36:25.175Z,98305.98
2022-08-01T20:39:00.420Z,98303.69
2022-08-01T20:41:33.017Z,98300.61
2022-08-01T20:44:07.409Z,98295.14
2022-08-01T20:46:40.510Z,98304.27
2022-08-01T20:49:14.777Z,98314.81
2022-08-01T20:51:49.002Z,98313.16
2022-08-01T20:54:21.681Z,98313.17
2022-08-01T20:57:01.006Z,98309.48
2022-08-01T20:59:56.778Z,98311.70
2022-08-01T21:02:41.438Z,98315.66
2022-08-01T21:05:17.401Z,98316.11
2022-08-01T21:07:54.056Z,98319.58
2022-08-01T21:10:30.660Z,98325.70
2022-08-01T21:13:06.266Z,98324.30
2022-08-01T21:16:07.490Z,98323.89
2022-08-01T21:18:58.143Z,98326.73
2022-08-01T21:21:42.341Z,98331.85
2022-08-01T21:24:18.972Z,98329.56
2022-08-01T21:26:54.900Z,98332.43
2022-08-01T21:29:30.037Z,98333.11
2022-08-01T21:32:15.587Z,98329.71
2022-08-01T21:34:51.858Z,98329.96
2022-08-01T21:37:24.743Z,98317.92
2022-08-01T21:39:58.805Z,98321.21
2022-08-01T21:42:31.115Z,98317.42
2022-08-01T21:45:05.383Z,98321.44
2022-08-01T21:47:39.092Z,98315.97
2022-08-01T21:50:11.836Z,98316.04
2022-08-01T21:52:50.417Z,98318.19
2022-08-01T21:55:32.201Z,98319.97
2022-08-01T21:58:24.879Z,98320.77
2022-08-01T22:01:04.078Z,98319.38
2022-08-01T22:03:43.738Z,98325.48
2022-08-01T22:06:17.713Z,98325.39
2022-08-01T22:08:54.181Z,98329.72
2022-08-01T22:11:29.686Z,98326.17
2022-08-01T22:14:06.318Z,98322.79
2022-08-01T22:16:40.898Z,98316.61
2022-08-01T22:19:29.617Z,98308.83
2022-08-01T22:22:09.021Z,98302.27
2022-08-01T22:25:04.534Z,98299.87
2022-08-01T22:28:03.183Z,98300.17
2022-08-01T22:30:35.695Z,98295.55
2022-08-01T22:33:16.447Z,98302.48
2022-08-01T22:35:53.632Z,98299.16
2022-08-01T22:38:27.377Z,98304.97
2022-08-01T22:41:05.589Z,98308.98
2022-08-01T22:43:44.216Z,98311.29
2022-08-01T22:46:26.335Z,98312.20
2022-08-01T22:49:09.263Z,98319.66
2022-08-01T22:51:55.525Z,98316.52
2022-08-01T22:54:37.473Z,98320.92
2022-08-01T22:57:22.625Z,98323.77
2022-08-01T23:00:00.560Z,98323.27
2022-08-01T23:02:35.441Z,98321.78
2022-08-01T23:05:09.867Z,98324.05
2022-08-01T23:07:46.445Z,98325.73
2022-08-01T23:10:19.762Z,98324.08
2022-08-01T23:12:54.249Z,98329.37
2022-08-01T23:15:27.673Z,98326.65
2022-08-01T23:18:02.221Z,98330.20
2022-08-01T23:20:37.300Z,98333.23
2022-08-01T23:23:10.858Z,98331.88
2022-08-01T23:25:45.087Z,98333.52
2022-08-01T23:28:17.952Z,98332.11
2022-08-01T23:30:50.370Z,98331.65
2022-08-01T23:33:22.598Z,98333.40
2022-08-01T23:35:55.001Z,98335.02
2022-08-01T23:38:27.676Z,98336.13
2022-08-01T23:40:59.955Z,98338.23
2022-08-01T23:43:33.024Z,98336.65
2022-08-01T23:46:05.668Z,98334.13
2022-08-01T23:48:38.739Z,98335.33
2022-08-01T23:51:17.256Z,98335.98
2022-08-01T23:53:56.343Z,98338.34
2022-08-01T23:56:28.476Z,98339.00
2022-08-01T23:59:02.915Z,98341.35
